Time;durP1;ratioP1;P1;durP2;ratioP2;P2;SDS_P1;SDS_P2;PMS_P1;PMS_P2;Temp;Humidity;BMP_temperature;BMP_pressure;BME280_temperature;BME280_humidity;BME280_pressure;Samples;Min_cycle;Max_cycle;Signal;HPM_P1;HPM_P2
2022/04/19 00:01:10;;;;;;;3.05;1.30;;;7.80;46.20;;;;;;4988909;28;20037;-58
2022/04/19 00:03:36;;;;;;;1.70;1.30;;;7.70;46.40;;;;;;4984496;28;20517;-59
2022/04/19 00:06:03;;;;;;;1.90;1.45;;;7.70;46.30;;;;;;4986568;28;20026;-59
2022/04/19 00:08:29;;;;;;;1.48;1.13;;;7.70;46.40;;;;;;4971628;28;20042;-59
2022/04/19 00:10:54;;;;;;;2.65;1.60;;;7.70;46.40;;;;;;4986406;28;20421;-59
2022/04/19 00:13:20;;;;;;;3.15;1.25;;;7.60;46.50;;;;;;4980338;28;20111;-57
2022/04/19 00:15:46;;;;;;;2.67;1.40;;;7.60;46.60;;;;;;4984165;28;20083;-59
2022/04/19 00:18:13;;;;;;;2.75;1.10;;;7.60;46.60;;;;;;4983275;28;20046;-59
2022/04/19 00:20:42;;;;;;;1.30;1.20;;;7.60;46.60;;;;;;4983685;28;20027;-58
2022/04/19 00:23:15;;;;;;;2.45;1.08;;;7.60;46.60;;;;;;4985063;28;20445;-58
2022/04/19 00:25:46;;;;;;;2.13;1.40;;;7.50;46.60;;;;;;4988151;28;20081;-59
2022/04/19 00:28:12;;;;;;;2.25;1.30;;;7.50;46.90;;;;;;4994863;28;20460;-57
2022/04/19 00:30:38;;;;;;;2.08;1.20;;;7.50;46.70;;;;;;4988648;28;20058;-59
2022/04/19 00:33:05;;;;;;;1.75;1.20;;;7.50;46.80;;;;;;4984598;28;20030;-57
2022/04/19 00:35:31;;;;;;;3.00;1.20;;;7.40;46.90;;;;;;4985685;28;20027;-57
2022/04/19 00:37:56;;;;;;;2.15;1.17;;;7.40;47.00;;;;;;4984545;28;20026;-58
2022/04/19 00:40:22;;;;;;;1.92;1.20;;;7.30;47.00;;;;;;4984929;28;20027;-59
2022/04/19 00:42:49;;;;;;;2.85;1.40;;;7.30;47.10;;;;;;4989831;28;20018;-58
2022/04/19 00:45:14;;;;;;;3.40;1.38;;;7.30;47.20;;;;;;4987879;28;20075;-58
2022/04/19 00:47:40;;;;;;;1.30;1.17;;;7.30;47.20;;;;;;4984899;28;20043;-58
2022/04/19 00:50:07;;;;;;;2.13;1.20;;;7.30;47.40;;;;;;4984133;28;20022;-58
2022/04/19 00:52:35;;;;;;;1.95;1.30;;;7.30;47.50;;;;;;4968423;28;20035;-59
2022/04/19 00:55:03;;;;;;;3.80;1.45;;;7.20;47.60;;;;;;4987746;28;20034;-58
2022/04/19 00:57:29;;;;;;;1.85;1.30;;;7.20;47.80;;;;;;4988981;28;20078;-57
2022/04/19 00:59:56;;;;;;;3.75;1.15;;;7.20;47.90;;;;;;4989214;28;20050;-58
2022/04/19 01:02:23;;;;;;;5.03;1.42;;;7.10;47.90;;;;;;4985691;28;20050;-57
2022/04/19 01:04:49;;;;;;;2.22;1.40;;;7.10;47.80;;;;;;4984436;28;20101;-57
2022/04/19 01:07:18;;;;;;;1.85;1.30;;;7.00;47.90;;;;;;4984258;28;20093;-57
2022/04/19 01:09:44;;;;;;;2.63;1.10;;;7.00;48.00;;;;;;4987965;28;20066;-57
2022/04/19 01:14:56;;;;;;;;;;;6.90;47.90;;;;;;4985038;28;20096;-58
2022/04/19 01:17:25;;;;;;;5.55;1.13;;;6.90;48.20;;;;;;4991346;28;19920;-57
2022/04/19 01:19:51;;;;;;;3.67;1.48;;;6.90;47.20;;;;;;4989187;28;20015;-59
2022/04/19 01:22:17;;;;;;;2.35;1.30;;;6.90;47.60;;;;;;4988364;28;20093;-58
2022/04/19 01:24:46;;;;;;;3.60;1.30;;;6.80;47.70;;;;;;4993417;28;20436;-57
2022/04/19 01:27:13;;;;;;;6.93;1.45;;;6.80;47.90;;;;;;4983340;28;20046;-58
2022/04/19 01:29:39;;;;;;;1.40;1.10;;;6.80;48.00;;;;;;4986271;28;20022;-58
2022/04/19 01:32:06;;;;;;;3.47;1.25;;;6.70;48.10;;;;;;4986868;28;20038;-58
2022/04/19 01:34:32;;;;;;;2.50;1.20;;;6.70;48.20;;;;;;4987532;28;20034;-59
2022/04/19 01:36:58;;;;;;;2.45;1.27;;;6.70;48.20;;;;;;4982963;28;20029;-59
2022/04/19 01:42:09;;;;;;;;;;;6.60;48.20;;;;;;4980650;28;20060;-57
2022/04/19 01:44:36;;;;;;;2.30;1.23;;;6.70;49.00;;;;;;4991426;28;19969;-58
2022/04/19 01:47:03;;;;;;;2.78;1.35;;;6.60;47.70;;;;;;4988413;28;20489;-57
2022/04/19 01:49:29;;;;;;;2.65;1.27;;;6.60;48.10;;;;;;4987921;28;20027;-57
2022/04/19 01:51:55;;;;;;;1.77;1.17;;;6.50;48.20;;;;;;4988121;28;20034;-57
2022/04/19 01:54:20;;;;;;;5.13;1.60;;;6.50;48.30;;;;;;4990826;28;20057;-59
2022/04/19 01:56:47;;;;;;;2.08;1.50;;;6.50;48.40;;;;;;4983114;28;20042;-58
2022/04/19 01:59:12;;;;;;;2.42;1.38;;;6.50;48.60;;;;;;4982965;28;20066;-59
2022/04/19 02:01:38;;;;;;;3.38;1.45;;;6.40;48.90;;;;;;4968345;28;20038;-57
2022/04/19 02:04:04;;;;;;;2.38;1.55;;;6.40;48.90;;;;;;4973489;28;20029;-57
2022/04/19 02:06:30;;;;;;;1.98;1.33;;;6.40;48.90;;;;;;4986128;28;20058;-57
2022/04/19 02:08:56;;;;;;;4.35;1.40;;;6.40;49.00;;;;;;4987978;28;20023;-57
2022/04/19 02:11:24;;;;;;;2.50;1.55;;;6.30;49.10;;;;;;4979400;28;20023;-57
2022/04/19 02:13:51;;;;;;;2.25;1.30;;;6.30;49.10;;;;;;4987846;28;20374;-59
2022/04/19 02:16:17;;;;;;;3.72;1.30;;;6.30;49.20;;;;;;4984818;28;20070;-57
2022/04/19 02:18:43;;;;;;;2.67;1.35;;;6.20;49.20;;;;;;4984550;28;20040;-58
2022/04/19 02:21:09;;;;;;;3.85;1.40;;;6.20;49.30;;;;;;4981738;28;20030;-57
2022/04/19 02:23:35;;;;;;;2.53;1.52;;;6.20;49.40;;;;;;4982182;28;21457;-58
2022/04/19 02:26:02;;;;;;;3.50;1.52;;;6.20;49.40;;;;;;4983713;28;20054;-57
2022/04/19 02:28:28;;;;;;;3.13;1.60;;;6.20;49.60;;;;;;4984863;28;20026;-57
2022/04/19 02:30:54;;;;;;;1.65;1.20;;;6.10;49.60;;;;;;4986387;28;20045;-58
2022/04/19 02:33:20;;;;;;;2.35;1.30;;;6.10;49.70;;;;;;4980908;28;20026;-58
2022/04/19 02:35:45;;;;;;;1.83;1.15;;;6.10;49.70;;;;;;4992573;28;20030;-59
2022/04/19 02:38:11;;;;;;;1.85;1.33;;;6.10;49.70;;;;;;4980449;28;20038;-59
2022/04/19 02:40:37;;;;;;;2.00;1.48;;;6.10;49.90;;;;;;4985584;28;20042;-59
2022/04/19 02:43:03;;;;;;;1.58;1.17;;;6.10;50.10;;;;;;4982869;28;20082;-57
2022/04/19 02:45:28;;;;;;;2.65;1.48;;;6.00;50.10;;;;;;4981984;28;20027;-59
2022/04/19 02:48:07;;;;;;;2.45;1.27;;;6.00;50.10;;;;;;4985078;28;20058;-59
2022/04/19 02:50:40;;;;;;;3.42;1.50;;;6.00;50.60;;;;;;4984389;28;20053;-59
2022/04/19 02:53:06;;;;;;;3.17;1.80;;;6.00;50.30;;;;;;4986463;28;20054;-59
2022/04/19 02:55:31;;;;;;;1.92;1.63;;;5.90;50.30;;;;;;4987682;28;20504;-58
2022/04/19 02:57:57;;;;;;;2.70;1.55;;;5.90;50.20;;;;;;4985377;28;20027;-57
2022/04/19 03:00:23;;;;;;;4.82;1.33;;;5.90;50.50;;;;;;4988652;28;20070;-59
2022/04/19 03:02:50;;;;;;;3.25;1.40;;;5.90;50.70;;;;;;4985963;28;20019;-58
2022/04/19 03:05:19;;;;;;;2.65;1.50;;;5.90;50.70;;;;;;4986999;28;20023;-59
2022/04/19 03:07:46;;;;;;;1.92;1.45;;;5.80;50.80;;;;;;4982262;28;20039;-59
2022/04/19 03:10:12;;;;;;;4.07;1.55;;;5.90;50.90;;;;;;4983171;28;20022;-58
2022/04/19 03:12:39;;;;;;;2.72;1.60;;;5.80;50.90;;;;;;4981993;28;20046;-58
2022/04/19 03:15:06;;;;;;;1.67;1.40;;;5.80;51.10;;;;;;4984761;28;20331;-59
2022/04/19 03:17:32;;;;;;;2.70;1.48;;;5.80;51.20;;;;;;4988190;28;20019;-58
2022/04/19 03:19:58;;;;;;;2.97;1.65;;;5.80;51.30;;;;;;4984893;28;20041;-57
2022/04/19 03:22:24;;;;;;;5.38;1.50;;;5.80;51.30;;;;;;4983423;28;20022;-59
2022/04/19 03:27:42;;;;;;;2.05;1.33;;;5.70;51.40;;;;;;4982331;28;20049;-59
2022/04/19 03:30:09;;;;;;;2.65;1.67;;;5.70;51.30;;;;;;4988154;28;20031;-59
2022/04/19 03:32:36;;;;;;;2.38;1.80;;;5.70;51.40;;;;;;4985237;28;20031;-59
2022/04/19 03:35:03;;;;;;;8.10;1.55;;;5.70;51.50;;;;;;4986560;28;20044;-58
2022/04/19 03:37:32;;;;;;;2.58;1.60;;;5.80;51.70;;;;;;4984747;28;20142;-58
2022/04/19 03:39:57;;;;;;;2.45;1.40;;;5.70;51.70;;;;;;4985900;28;20126;-57
2022/04/19 03:42:24;;;;;;;3.20;1.60;;;5.80;51.80;;;;;;4986453;28;20457;-57
2022/04/19 03:44:49;;;;;;;4.15;1.48;;;5.80;51.90;;;;;;4984196;28;20161;-57
2022/04/19 03:47:15;;;;;;;2.13;1.33;;;5.80;51.90;;;;;;4983878;28;20066;-57
2022/04/19 03:49:44;;;;;;;4.15;1.50;;;5.80;51.80;;;;;;4982351;28;20050;-57
2022/04/19 03:52:10;;;;;;;4.18;1.60;;;5.80;51.80;;;;;;4965363;28;20035;-57
2022/04/19 03:54:37;;;;;;;4.82;1.88;;;5.90;51.90;;;;;;4992296;28;20094;-58
2022/04/19 03:57:07;;;;;;;3.53;1.70;;;5.90;52.00;;;;;;4988386;28;20022;-57
2022/04/19 03:59:34;;;;;;;2.45;1.80;;;5.90;52.20;;;;;;4990581;28;20106;-57
2022/04/19 04:02:00;;;;;;;2.05;1.65;;;5.90;52.10;;;;;;4998654;28;20025;-58
2022/04/19 04:04:30;;;;;;;1.92;1.60;;;5.90;51.90;;;;;;4986870;28;20030;-57
2022/04/19 04:06:59;;;;;;;2.65;1.75;;;5.90;52.00;;;;;;4986519;28;20027;-58
2022/04/19 04:09:25;;;;;;;3.33;1.45;;;6.00;52.00;;;;;;4990371;28;20045;-58
2022/04/19 04:11:51;;;;;;;5.10;2.08;;;6.00;51.90;;;;;;4984785;28;20363;-58
2022/04/19 04:14:17;;;;;;;3.38;2.00;;;6.00;52.00;;;;;;4984071;28;20038;-58
2022/04/19 04:16:42;;;;;;;6.65;1.90;;;6.00;51.90;;;;;;4968490;28;20038;-57
2022/04/19 04:19:08;;;;;;;3.45;1.63;;;6.00;52.00;;;;;;4990864;28;20022;-57
2022/04/19 04:21:34;;;;;;;3.38;1.80;;;6.00;52.10;;;;;;4990038;28;20022;-58
2022/04/19 04:24:00;;;;;;;7.20;3.20;;;6.00;52.10;;;;;;4984997;28;20019;-59
2022/04/19 04:26:25;;;;;;;3.10;2.10;;;6.00;52.10;;;;;;4989324;28;20122;-59
2022/04/19 04:28:51;;;;;;;3.33;1.88;;;6.00;52.10;;;;;;4989723;28;20038;-58
2022/04/19 04:31:16;;;;;;;5.50;1.83;;;6.00;52.20;;;;;;4986016;28;20410;-57
2022/04/19 04:33:42;;;;;;;5.88;2.20;;;5.90;52.20;;;;;;4990485;28;20027;-58
2022/04/19 04:36:09;;;;;;;3.55;2.17;;;6.00;52.20;;;;;;4990802;28;20027;-57
2022/04/19 04:38:34;;;;;;;4.53;2.03;;;6.00;52.20;;;;;;4986829;28;20034;-57
2022/04/19 04:41:00;;;;;;;4.50;1.85;;;6.00;52.30;;;;;;4977786;28;20027;-57
2022/04/19 04:43:25;;;;;;;4.15;2.15;;;6.00;52.30;;;;;;4989106;28;20045;-58
2022/04/19 04:49:35;;;;;;;5.55;2.10;;;6.00;52.20;;;;;;4988030;28;20041;-57
2022/04/19 04:51:21;;;;;;;3.03;2.00;;;6.00;52.20;;;;;;4986199;28;20140;-58
2022/04/19 04:53:46;;;;;;;5.65;1.90;;;6.00;52.20;;;;;;4987385;28;20396;-57
2022/04/19 04:56:12;;;;;;;3.45;2.00;;;6.00;52.30;;;;;;4992656;28;20061;-57
2022/04/19 04:58:38;;;;;;;2.78;2.08;;;6.10;52.40;;;;;;4986910;28;20031;-59
2022/04/19 05:01:03;;;;;;;3.13;2.13;;;6.10;53.20;;;;;;4991716;28;20042;-59
2022/04/19 05:03:29;;;;;;;4.28;1.85;;;6.10;52.60;;;;;;4994008;28;20045;-58
2022/04/19 05:05:56;;;;;;;5.80;2.08;;;6.20;52.90;;;;;;4985272;28;20029;-58
2022/04/19 05:08:22;;;;;;;7.40;2.30;;;6.20;52.80;;;;;;4983966;28;20077;-57
2022/04/19 05:10:47;;;;;;;3.30;2.03;;;6.30;52.80;;;;;;4985501;28;20026;-57
2022/04/19 05:13:13;;;;;;;8.23;2.22;;;6.30;52.90;;;;;;4989253;28;20038;-59
2022/04/19 05:15:38;;;;;;;4.95;2.13;;;6.40;52.80;;;;;;4985427;28;20038;-58
2022/04/19 05:18:04;;;;;;;2.67;1.90;;;6.50;52.80;;;;;;4990144;28;20062;-59
2022/04/19 05:20:30;;;;;;;4.05;2.22;;;6.50;52.80;;;;;;4990577;28;20031;-58
2022/04/19 05:22:56;;;;;;;3.03;2.00;;;6.60;52.70;;;;;;4981396;28;20050;-58
2022/04/19 05:25:22;;;;;;;5.10;2.28;;;6.70;52.70;;;;;;4982636;28;20023;-59
2022/04/19 05:27:47;;;;;;;2.92;1.77;;;6.80;52.80;;;;;;4986458;28;20062;-57
2022/04/19 05:30:13;;;;;;;3.85;2.00;;;6.90;52.70;;;;;;4981544;28;20490;-58
2022/04/19 05:32:38;;;;;;;3.80;2.15;;;7.00;52.80;;;;;;4983274;28;20049;-58
2022/04/19 05:35:04;;;;;;;3.63;1.90;;;7.10;52.60;;;;;;4986672;28;20054;-57
2022/04/19 05:37:30;;;;;;;5.32;2.25;;;7.20;52.60;;;;;;4989192;28;20023;-57
2022/04/19 05:39:56;;;;;;;13.00;2.38;;;7.30;52.60;;;;;;4986242;28;20122;-59
2022/04/19 05:42:21;;;;;;;7.63;2.25;;;7.50;52.50;;;;;;4983818;28;20030;-58
2022/04/19 05:44:47;;;;;;;6.28;2.45;;;7.60;52.40;;;;;;4990160;28;20023;-57
2022/04/19 05:47:15;;;;;;;4.28;1.98;;;7.70;52.20;;;;;;4983308;28;20030;-58
2022/04/19 05:49:40;;;;;;;3.78;2.00;;;7.80;52.10;;;;;;4984637;28;20034;-58
2022/04/19 05:52:06;;;;;;;13.82;2.58;;;8.00;52.00;;;;;;4987644;28;20023;-59
2022/04/19 05:54:32;;;;;;;12.20;1.83;;;8.10;52.00;;;;;;4981678;28;20027;-57
2022/04/19 05:56:57;;;;;;;9.73;2.50;;;8.20;51.70;;;;;;4985224;28;20023;-57
2022/04/19 05:59:23;;;;;;;5.82;2.42;;;8.40;51.70;;;;;;4984514;28;20058;-58
2022/04/19 06:07:17;;;;;;;5.53;2.10;;;8.90;51.40;;;;;;4980630;28;20109;-59
2022/04/19 06:09:42;;;;;;;12.95;2.42;;;9.00;51.10;;;;;;4984288;28;20022;-59
2022/04/19 06:12:08;;;;;;;8.48;2.60;;;9.20;51.10;;;;;;4990053;28;20023;-58
2022/04/19 06:14:35;;;;;;;8.73;2.20;;;9.40;51.00;;;;;;4981362;28;20050;-57
2022/04/19 06:17:00;;;;;;;7.20;2.15;;;9.50;50.90;;;;;;4980790;28;20030;-58
2022/04/19 06:19:27;;;;;;;6.22;2.53;;;9.70;50.80;;;;;;4990238;28;20034;-59
2022/04/19 06:21:53;;;;;;;6.53;2.53;;;9.80;50.60;;;;;;4989879;28;20026;-57
2022/04/19 06:24:19;;;;;;;9.65;2.42;;;10.00;50.50;;;;;;4885880;28;20037;-59
2022/04/19 06:26:44;;;;;;;10.50;2.80;;;10.20;50.30;;;;;;4963232;28;20023;-57
2022/04/19 06:29:10;;;;;;;10.38;2.80;;;10.30;50.10;;;;;;4987790;28;20043;-58
2022/04/19 06:31:36;;;;;;;14.60;2.60;;;10.50;49.90;;;;;;4985324;28;20034;-59
2022/04/19 06:34:02;;;;;;;6.55;2.40;;;10.70;49.70;;;;;;4980544;28;20034;-57
2022/04/19 06:36:27;;;;;;;9.25;2.97;;;10.80;49.40;;;;;;4985617;28;20034;-58
2022/04/19 06:38:53;;;;;;;26.30;2.63;;;11.00;49.40;;;;;;4983341;28;20053;-59
2022/04/19 06:41:19;;;;;;;8.20;2.75;;;11.20;49.20;;;;;;4987148;28;20042;-58
2022/04/19 06:43:45;;;;;;;8.68;2.47;;;11.30;49.10;;;;;;4988005;28;20022;-59
2022/04/19 06:46:13;;;;;;;7.68;2.55;;;11.50;49.00;;;;;;4983589;28;20139;-58
2022/04/19 06:48:39;;;;;;;12.02;2.70;;;11.70;48.80;;;;;;4985198;28;20099;-58
2022/04/19 06:51:04;;;;;;;10.82;2.80;;;11.90;48.50;;;;;;4981452;28;20039;-59
2022/04/19 06:53:30;;;;;;;10.18;2.78;;;12.10;48.30;;;;;;4986039;28;20030;-58
2022/04/19 06:55:56;;;;;;;8.85;2.63;;;12.30;48.00;;;;;;4986212;28;20398;-58
2022/04/19 06:58:22;;;;;;;7.32;2.78;;;12.40;47.70;;;;;;4978165;28;20101;-58
2022/04/19 07:00:48;;;;;;;7.15;2.80;;;12.60;47.50;;;;;;4984693;28;20046;-59
2022/04/19 07:03:14;;;;;;;8.05;2.20;;;12.80;47.80;;;;;;4984954;28;20031;-59
2022/04/19 07:05:39;;;;;;;6.88;2.33;;;13.00;47.00;;;;;;4980252;28;20069;-59
2022/04/19 07:08:07;;;;;;;9.23;2.60;;;13.20;46.80;;;;;;4981802;28;20465;-60
2022/04/19 07:10:33;;;;;;;12.95;2.60;;;13.40;46.60;;;;;;4980664;28;20026;-58
2022/04/19 07:13:00;;;;;;;4.65;2.55;;;13.60;46.30;;;;;;4985190;28;20015;-59
2022/04/19 07:15:26;;;;;;;8.30;2.22;;;13.80;45.90;;;;;;4982270;28;20082;-60
2022/04/19 07:17:51;;;;;;;8.35;2.38;;;14.10;45.70;;;;;;4984930;28;20027;-58
2022/04/19 07:28:35;;;;;;;4.18;2.05;;;15.00;44.50;;;;;;4990474;28;20362;-60
2022/04/19 07:31:04;;;;;;;3.65;1.90;;;15.20;43.80;;;;;;4988536;28;20035;-59
2022/04/19 07:33:31;;;;;;;6.70;2.30;;;15.40;43.30;;;;;;4987152;28;20029;-60
2022/04/19 07:35:57;;;;;;;4.60;1.83;;;15.50;43.20;;;;;;4990197;28;20026;-60
2022/04/19 07:38:23;;;;;;;4.40;1.90;;;15.70;42.80;;;;;;4981374;28;20073;-59
2022/04/19 07:40:49;;;;;;;6.30;2.20;;;15.90;42.40;;;;;;4983005;28;20030;-60
2022/04/19 07:43:15;;;;;;;4.75;1.98;;;16.00;41.20;;;;;;4980196;28;20027;-59
2022/04/19 07:45:41;;;;;;;2.53;1.67;;;16.10;41.00;;;;;;4985389;28;20037;-60
2022/04/19 07:48:07;;;;;;;2.50;1.70;;;16.30;40.40;;;;;;4982174;28;20042;-59
2022/04/19 07:50:38;;;;;;;2.50;1.83;;;16.40;39.60;;;;;;4985570;28;20062;-60
2022/04/19 07:53:04;;;;;;;4.95;2.10;;;16.60;39.70;;;;;;4978902;28;20019;-59
2022/04/19 07:55:30;;;;;;;5.07;1.88;;;16.70;39.70;;;;;;4980105;28;20049;-60
2022/04/19 07:57:55;;;;;;;10.05;2.08;;;16.80;39.60;;;;;;4981281;28;20042;-60
2022/04/19 08:00:21;;;;;;;2.58;1.80;;;16.90;39.10;;;;;;4983421;28;20043;-59
2022/04/19 08:02:47;;;;;;;3.13;2.00;;;17.10;39.20;;;;;;4968145;28;20050;-59
2022/04/19 08:05:14;;;;;;;3.65;1.95;;;17.20;39.00;;;;;;4985170;28;20065;-59
2022/04/19 08:07:40;;;;;;;3.03;1.50;;;17.30;38.40;;;;;;4983422;28;20042;-60
2022/04/19 08:10:06;;;;;;;2.85;1.95;;;17.40;38.10;;;;;;4984165;28;20023;-58
2022/04/19 08:12:32;;;;;;;3.30;1.92;;;17.50;38.30;;;;;;4984757;28;20066;-58
2022/04/19 08:14:58;;;;;;;2.25;1.77;;;17.60;37.70;;;;;;4985964;28;20037;-58
2022/04/19 08:17:24;;;;;;;2.90;1.85;;;17.70;37.00;;;;;;4984677;28;20038;-58
2022/04/19 08:19:50;;;;;;;2.88;1.88;;;17.80;36.60;;;;;;4966662;28;20078;-59
2022/04/19 08:22:16;;;;;;;2.15;1.27;;;17.80;35.80;;;;;;4983252;28;20034;-59
2022/04/19 08:24:42;;;;;;;2.95;1.98;;;17.90;36.20;;;;;;4930974;28;20038;-60
2022/04/19 08:27:08;;;;;;;2.45;1.90;;;18.00;35.70;;;;;;4982512;28;20042;-60
2022/04/19 08:29:34;;;;;;;2.35;1.60;;;18.00;35.70;;;;;;4984518;28;20027;-58
2022/04/19 08:31:59;;;;;;;2.53;1.70;;;18.00;35.50;;;;;;4986057;28;20033;-59
2022/04/19 08:34:25;;;;;;;1.75;1.50;;;18.10;35.70;;;;;;4983020;28;20126;-58
2022/04/19 08:36:51;;;;;;;3.63;1.98;;;18.20;35.80;;;;;;4986823;28;20034;-60
2022/04/19 08:39:16;;;;;;;2.83;1.80;;;18.30;34.90;;;;;;4980133;28;20027;-60
2022/04/19 08:41:43;;;;;;;2.85;1.85;;;18.40;34.80;;;;;;4989503;28;20077;-59
2022/04/19 08:44:10;;;;;;;3.13;1.80;;;18.40;33.30;;;;;;4985759;28;20035;-59
2022/04/19 08:46:42;;;;;;;3.20;1.60;;;18.50;33.80;;;;;;4994832;28;20045;-59
2022/04/19 08:49:09;;;;;;;3.17;1.95;;;18.50;34.10;;;;;;4984987;28;20065;-58
2022/04/19 08:51:36;;;;;;;3.10;1.83;;;18.50;34.40;;;;;;4966220;28;20038;-60
2022/04/19 08:59:32;;;;;;;2.80;1.80;;;18.70;33.50;;;;;;4980277;28;20395;-60
2022/04/19 09:01:59;;;;;;;3.28;1.88;;;18.80;33.30;;;;;;4984437;28;20033;-59
2022/04/19 09:04:25;;;;;;;3.80;1.88;;;18.80;33.30;;;;;;4988425;28;20037;-60
2022/04/19 09:06:59;;;;;;;3.55;2.05;;;18.80;32.70;;;;;;4989044;28;20027;-60
2022/04/19 09:09:25;;;;;;;2.78;2.00;;;18.90;31.90;;;;;;4983636;28;20062;-60
2022/04/19 09:11:52;;;;;;;2.88;1.70;;;18.90;32.80;;;;;;4982870;28;20037;-59
2022/04/19 09:14:18;;;;;;;2.90;1.80;;;19.00;32.60;;;;;;4984554;28;20046;-59
2022/04/19 09:16:45;;;;;;;3.83;1.92;;;19.10;32.60;;;;;;4990659;28;20019;-60
2022/04/19 09:19:32;;;;;;;2.75;2.10;;;19.10;32.40;;;;;;4991025;28;20102;-59
2022/04/19 09:21:58;;;;;;;2.88;2.25;;;19.20;31.90;;;;;;4980692;28;20026;-60
2022/04/19 09:24:25;;;;;;;4.28;2.20;;;19.20;31.70;;;;;;4888515;28;20652;-60
2022/04/19 09:26:51;;;;;;;2.47;2.20;;;19.30;31.40;;;;;;4986153;28;20023;-60
2022/04/19 09:29:25;;;;;;;3.92;2.10;;;19.30;31.20;;;;;;4986565;28;20482;-60
2022/04/19 09:32:01;;;;;;;2.88;2.15;;;19.30;30.80;;;;;;4985155;28;20485;-60
2022/04/19 09:34:33;;;;;;;3.67;2.28;;;19.30;30.30;;;;;;4985769;28;20097;-59
2022/04/19 09:37:12;;;;;;;4.28;2.13;;;19.30;30.10;;;;;;4989411;28;20046;-58
2022/04/19 09:39:39;;;;;;;3.40;2.03;;;19.30;30.00;;;;;;4980963;28;20029;-59
2022/04/19 09:42:09;;;;;;;5.25;2.30;;;19.30;31.10;;;;;;4985837;28;20050;-60
2022/04/19 09:44:43;;;;;;;3.00;2.28;;;19.40;30.20;;;;;;4985251;28;20486;-59
2022/04/19 09:47:13;;;;;;;2.78;1.90;;;19.30;30.50;;;;;;4979540;28;20030;-59
2022/04/19 09:49:53;;;;;;;3.03;2.10;;;19.30;30.80;;;;;;4984706;28;20027;-59
2022/04/19 09:52:21;;;;;;;2.25;1.85;;;19.30;29.90;;;;;;4985802;28;20041;-59
2022/04/19 09:55:08;;;;;;;3.65;2.00;;;19.30;30.20;;;;;;4968200;28;20031;-59
2022/04/19 09:57:39;;;;;;;3.63;2.53;;;19.40;29.20;;;;;;4987217;28;20049;-59
2022/04/19 10:00:12;;;;;;;3.25;2.28;;;19.30;29.90;;;;;;4986896;28;20078;-61
2022/04/19 10:08:18;;;;;;;;;;;19.10;30.00;;;;;;4986056;28;20049;-59
2022/04/19 10:10:46;;;;;;;4.25;2.67;;;19.20;30.00;;;;;;4988888;28;19909;-59
2022/04/19 10:13:13;;;;;;;3.03;2.30;;;19.20;30.40;;;;;;4980284;28;20059;-59
2022/04/19 10:15:40;;;;;;;6.03;2.67;;;19.20;31.30;;;;;;4989466;28;20057;-59
2022/04/19 10:18:07;;;;;;;3.85;2.75;;;19.20;30.70;;;;;;4984360;28;20026;-59
2022/04/19 10:20:39;;;;;;;2.92;2.38;;;19.30;30.80;;;;;;4985907;28;20058;-60
2022/04/19 10:23:09;;;;;;;6.05;2.28;;;19.40;30.60;;;;;;4986629;28;20022;-59
2022/04/19 10:25:45;;;;;;;3.97;2.78;;;19.40;30.20;;;;;;4985994;28;20058;-60
2022/04/19 10:28:14;;;;;;;5.70;2.58;;;19.50;30.20;;;;;;4980467;28;20042;-60
2022/04/19 10:30:51;;;;;;;7.90;2.80;;;19.50;29.40;;;;;;4985682;28;20077;-60
2022/04/19 10:33:38;;;;;;;4.18;2.60;;;19.50;30.00;;;;;;4980459;28;20113;-59
2022/04/19 10:36:34;;;;;;;3.92;2.60;;;19.60;31.40;;;;;;4981897;28;20030;-60
2022/04/19 10:39:12;;;;;;;3.28;2.58;;;19.70;30.00;;;;;;4989607;28;20046;-60
2022/04/19 10:41:47;;;;;;;3.50;2.50;;;19.70;30.80;;;;;;4981214;28;20031;-60
2022/04/19 10:44:45;;;;;;;;;;;19.80;30.20;;;;;;4987643;28;20011;-60
2022/04/19 10:47:14;;;;;;;;;;;20.00;31.00;;;;;;4947056;29;19925;-60
2022/04/19 10:49:49;;;;;;;;;;;20.10;30.70;;;;;;4962751;28;19918;-61
2022/04/19 10:52:50;;;;;;;;;;;20.20;31.10;;;;;;4964357;28;19918;-60
2022/04/19 10:55:21;;;;;;;;;;;20.30;30.00;;;;;;4878261;29;19911;-61
2022/04/19 10:58:08;;;;;;;;;;;20.40;31.00;;;;;;4881353;29;19912;-60
2022/04/19 11:00:34;;;;;;;;;;;20.50;30.10;;;;;;4881935;29;19960;-60
2022/04/19 11:03:16;;;;;;;;;;;20.60;30.30;;;;;;4883492;29;19916;-60
2022/04/19 11:05:44;;;;;;;;;;;20.60;30.80;;;;;;4878035;29;19947;-61
2022/04/19 11:08:25;;;;;;;;;;;20.60;29.90;;;;;;4860674;29;19927;-60
2022/04/19 11:11:03;;;;;;;;;;;20.60;30.50;;;;;;4880716;29;19915;-61
2022/04/19 11:13:31;;;;;;;;;;;20.60;30.00;;;;;;4885127;29;19912;-59
2022/04/19 11:15:57;;;;;;;;;;;20.60;30.00;;;;;;4880027;29;19912;-60
2022/04/19 11:18:23;;;;;;;;;;;20.70;29.70;;;;;;4882399;29;19915;-60
2022/04/19 11:20:49;;;;;;;;;;;20.70;31.20;;;;;;4881071;29;19931;-59
2022/04/19 11:23:19;;;;;;;;;;;20.80;31.20;;;;;;4898111;29;20442;-59
2022/04/19 11:25:45;;;;;;;;;;;20.90;31.70;;;;;;4901979;29;19951;-59
2022/04/19 11:28:11;;;;;;;;;;;21.00;30.90;;;;;;4911305;28;19924;-60
2022/04/19 11:30:41;;;;;;;;;;;21.10;31.30;;;;;;4981992;28;19982;-60
2022/04/19 11:33:08;;;;;;;;;;;21.20;30.70;;;;;;4985794;28;19910;-59
2022/04/19 11:35:34;;;;;;;;;;;21.30;28.40;;;;;;4985830;28;19921;-60
2022/04/19 11:38:08;;;;;;;;;;;21.40;29.60;;;;;;4963742;28;19910;-59
2022/04/19 11:49:01;;;;;;;;;;;21.60;31.10;;;;;;4976837;28;19925;-59
2022/04/19 11:51:27;;;;;;;;;;;21.70;30.00;;;;;;4987232;28;19910;-59
2022/04/19 11:53:52;;;;;;;;;;;21.80;28.10;;;;;;4986729;28;20309;-59
2022/04/19 11:56:18;;;;;;;;;;;21.80;29.90;;;;;;4982600;28;19965;-60
2022/04/19 11:58:49;;;;;;;;;;;21.90;30.00;;;;;;4979250;28;19921;-60
2022/04/19 12:01:14;;;;;;;;;;;22.00;30.00;;;;;;4978727;28;19910;-59
2022/04/19 12:03:40;;;;;;;;;;;22.10;30.30;;;;;;4984280;28;19917;-60
2022/04/19 12:06:08;;;;;;;;;;;22.10;29.90;;;;;;4987541;28;19958;-59
2022/04/19 12:08:33;;;;;;;;;;;22.30;30.60;;;;;;4984370;28;19960;-59
2022/04/19 12:11:06;;;;;;;;;;;22.40;29.90;;;;;;4986111;28;19910;-59
2022/04/19 12:13:32;;;;;;;;;;;22.60;28.90;;;;;;4980480;28;19910;-60
2022/04/19 12:16:00;;;;;;;;;;;22.70;26.90;;;;;;4985329;28;20008;-59
2022/04/19 12:18:36;;;;;;;;;;;22.70;29.40;;;;;;4983570;28;19917;-59
2022/04/19 12:21:02;;;;;;;;;;;22.80;30.00;;;;;;4978348;28;19921;-59
2022/04/19 12:23:28;;;;;;;;;;;22.80;29.50;;;;;;4983678;28;19910;-60
2022/04/19 12:26:10;;;;;;;;;;;22.90;29.50;;;;;;4988774;28;19946;-60
2022/04/19 12:28:36;;;;;;;;;;;23.00;28.90;;;;;;4988491;28;19918;-60
2022/04/19 12:31:02;;;;;;;;;;;23.00;27.40;;;;;;4995889;28;20448;-59
2022/04/19 12:33:27;;;;;;;;;;;23.00;27.50;;;;;;4984636;28;19925;-59
2022/04/19 12:35:53;;;;;;;;;;;23.00;26.70;;;;;;4983315;28;19921;-59
2022/04/19 12:38:27;;;;;;;;;;;23.00;28.30;;;;;;4984540;28;19996;-61
2022/04/19 12:40:53;;;;;;;;;;;23.00;28.50;;;;;;4984923;28;19960;-60
2022/04/19 12:43:19;;;;;;;;;;;23.00;26.90;;;;;;4984492;28;20043;-60
2022/04/19 12:45:46;;;;;;;;;;;23.00;28.10;;;;;;4984555;28;19914;-59
2022/04/19 12:48:21;;;;;;;;;;;22.90;28.20;;;;;;4983698;28;19926;-60
2022/04/19 12:50:47;;;;;;;;;;;22.90;28.60;;;;;;4989840;28;19917;-60
2022/04/19 12:53:22;;;;;;;;;;;22.90;28.50;;;;;;4988792;28;19910;-60
2022/04/19 12:55:48;;;;;;;;;;;23.00;29.00;;;;;;4991208;28;19910;-60
2022/04/19 12:58:13;;;;;;;;;;;23.10;29.10;;;;;;4987265;28;19914;-60
2022/04/19 13:00:39;;;;;;;;;;;23.20;29.40;;;;;;4987311;28;19945;-60
2022/04/19 13:03:04;;;;;;;;;;;23.30;28.10;;;;;;4997436;28;19937;-60
2022/04/19 13:13:43;;;;;;;;;;;23.50;28.70;;;;;;4985951;28;19933;-60
2022/04/19 13:16:09;;;;;;;;;;;23.60;29.20;;;;;;4991427;28;19910;-60
2022/04/19 13:18:34;;;;;;;;;;;23.70;29.40;;;;;;4984119;28;19941;-60
2022/04/19 13:21:00;;;;;;;;;;;23.90;29.60;;;;;;4985909;28;19917;-60
2022/04/19 13:23:25;;;;;;;;;;;24.00;27.90;;;;;;4980807;28;19910;-60
2022/04/19 13:25:51;;;;;;;;;;;24.10;27.00;;;;;;4987415;28;19910;-60
2022/04/19 13:28:17;;;;;;;;;;;24.20;27.50;;;;;;4987511;28;19975;-60
2022/04/19 13:30:43;;;;;;;;;;;24.20;28.10;;;;;;4981787;28;19921;-60
2022/04/19 13:33:08;;;;;;;;;;;24.30;28.00;;;;;;4989856;28;19916;-61
2022/04/19 13:35:34;;;;;;;;;;;24.30;28.00;;;;;;4980889;28;20008;-60
2022/04/19 13:40:43;;;;;;;;;;;24.40;28.90;;;;;;4980245;28;20554;-60
2022/04/19 13:43:09;;;;;;;;;;;24.50;28.00;;;;;;4981053;28;20020;-61
2022/04/19 13:45:36;;;;;;;;;;;24.60;28.30;;;;;;4977940;28;19921;-60
2022/04/19 13:48:02;;;;;;;;;;;24.70;27.60;;;;;;4988688;28;19924;-60
2022/04/19 13:50:27;;;;;;;;;;;24.80;26.40;;;;;;4985185;28;19910;-60
2022/04/19 13:52:53;;;;;;;;;;;24.80;26.50;;;;;;4983638;28;19914;-60
2022/04/19 13:55:21;;;;;;;;;;;24.80;28.10;;;;;;4985638;28;20369;-60
2022/04/19 13:57:49;;;;;;;;;;;24.80;27.20;;;;;;4963337;28;19922;-60
2022/04/19 14:00:15;;;;;;;;;;;24.80;27.80;;;;;;4990193;28;19917;-60
2022/04/19 14:02:40;;;;;;;;;;;24.80;27.60;;;;;;4986899;28;20262;-60
2022/04/19 14:05:07;;;;;;;;;;;24.70;27.90;;;;;;4984553;28;20722;-60
2022/04/19 14:07:33;;;;;;;;;;;24.60;23.80;;;;;;4983843;28;19941;-60
2022/04/19 14:09:59;;;;;;;;;;;24.50;25.30;;;;;;4985906;28;19914;-60